createdAt,value
2022-08-27T00:00:50.052Z,19.86
2022-08-27T00:03:19.246Z,19.85
2022-08-27T00:05:47.727Z,19.70
2022-08-27T00:08:17.430Z,19.62
2022-08-27T00:10:45.984Z,19.71
2022-08-27T00:13:17.172Z,19.45
2022-08-27T00:15:45.951Z,19.52
2022-08-27T00:18:14.555Z,19.54
2022-08-27T00:20:43.849Z,19.56
2022-08-27T00:23:12.658Z,19.58
2022-08-27T00:25:41.184Z,19.58
2022-08-27T00:28:10.038Z,19.45
2022-08-27T00:30:40.295Z,19.36
2022-08-27T00:33:08.777Z,19.45
2022-08-27T00:35:38.032Z,19.27
2022-08-27T00:38:07.823Z,19.31
2022-08-27T00:40:36.367Z,19.27
2022-08-27T00:43:04.971Z,18.99
2022-08-27T00:45:40.646Z,19.29
2022-08-27T00:48:11.373Z,19.43
2022-08-27T00:50:42.551Z,19.47
2022-08-27T00:53:15.432Z,19.43
2022-08-27T00:55:47.473Z,19.30
2022-08-27T00:58:23.163Z,19.44
2022-08-27T01:00:52.993Z,19.36
2022-08-27T01:03:21.771Z,19.54
2022-08-27T01:05:51.154Z,19.48
2022-08-27T01:08:21.834Z,19.42
2022-08-27T01:10:50.752Z,19.45
2022-08-27T01:13:20.812Z,19.47
2022-08-27T01:16:12.027Z,19.16
2022-08-27T01:18:40.633Z,19.36
2022-08-27T01:21:19.769Z,19.44
2022-08-27T01:23:54.072Z,19.38
2022-08-27T01:26:25.241Z,19.28
2022-08-27T01:28:53.929Z,19.43
2022-08-27T01:31:22.537Z,19.44
2022-08-27T01:33:58.960Z,19.32
2022-08-27T01:36:27.802Z,19.37
2022-08-27T01:38:57.523Z,19.21
2022-08-27T01:41:27.554Z,19.23
2022-08-27T01:43:56.109Z,19.11
2022-08-27T01:46:27.067Z,19.13
2022-08-27T01:48:56.496Z,19.16
2022-08-27T01:51:24.919Z,19.21
2022-08-27T01:53:53.461Z,19.07
2022-08-27T01:56:22.050Z,19.07
2022-08-27T01:58:52.454Z,19.05
2022-08-27T02:01:21.055Z,18.97
2022-08-27T02:03:49.621Z,18.94
2022-08-27T02:06:18.209Z,18.92
2022-08-27T02:08:46.721Z,19.04
2022-08-27T02:11:15.288Z,19.07
2022-08-27T02:13:43.862Z,18.77
2022-08-27T02:16:14.674Z,19.01
2022-08-27T02:18:43.138Z,18.86
2022-08-27T02:21:13.135Z,18.83
2022-08-27T02:23:42.205Z,18.97
2022-08-27T02:26:10.719Z,18.69
2022-08-27T02:28:39.268Z,19.02
2022-08-27T02:31:07.767Z,18.99
2022-08-27T02:33:37.686Z,18.90
2022-08-27T02:36:06.419Z,18.86
2022-08-27T02:38:35.287Z,18.83
2022-08-27T02:41:03.688Z,18.71
2022-08-27T02:43:32.244Z,18.58
2022-08-27T02:46:01.711Z,18.84
2022-08-27T02:48:30.277Z,18.89
2022-08-27T02:53:45.443Z,18.78
2022-08-27T02:56:14.257Z,18.60
2022-08-27T02:58:50.239Z,18.73
2022-08-27T03:01:18.786Z,18.72
2022-08-27T03:03:47.311Z,18.81
2022-08-27T03:06:15.915Z,18.82
2022-08-27T03:08:52.316Z,18.81
2022-08-27T03:11:22.601Z,18.77
2022-08-27T03:13:51.207Z,18.72
2022-08-27T03:16:19.860Z,18.66
2022-08-27T03:18:47.352Z,18.15
2022-08-27T03:21:19.588Z,18.62
2022-08-27T03:23:49.912Z,18.64
2022-08-27T03:26:19.874Z,18.51
2022-08-27T03:28:48.571Z,18.70
2022-08-27T03:31:27.054Z,18.71
2022-08-27T03:33:57.513Z,18.72
2022-08-27T03:36:26.622Z,18.71
2022-08-27T03:38:56.557Z,18.72
2022-08-27T03:41:53.938Z,18.62
2022-08-27T03:44:18.156Z,18.61
2022-08-27T03:46:50.626Z,18.52
2022-08-27T03:49:20.597Z,18.39
2022-08-27T03:51:50.171Z,18.40
2022-08-27T03:54:20.627Z,18.37
2022-08-27T03:56:49.321Z,18.37
2022-08-27T03:59:18.067Z,18.53
2022-08-27T04:01:47.724Z,18.54
2022-08-27T04:04:16.712Z,18.34
2022-08-27T04:06:45.086Z,18.39
2022-08-27T04:09:13.814Z,18.37
2022-08-27T04:11:43.882Z,18.34
2022-08-27T04:14:24.745Z,18.22
2022-08-27T04:16:56.258Z,18.15
2022-08-27T04:19:28.045Z,18.20
2022-08-27T04:22:01.477Z,18.29
2022-08-27T04:24:31.533Z,18.28
2022-08-27T04:27:02.063Z,18.36
2022-08-27T04:32:16.537Z,18.36
2022-08-27T04:34:44.924Z,18.23
2022-08-27T04:37:13.907Z,18.30
2022-08-27T04:39:42.398Z,17.88
2022-08-27T04:42:14.849Z,18.08
2022-08-27T04:44:43.352Z,16.41
2022-08-27T04:47:11.988Z,17.92
2022-08-27T04:49:40.822Z,18.02
2022-08-27T04:52:09.888Z,18.00
2022-08-27T04:54:38.465Z,18.11
2022-08-27T04:57:08.219Z,18.00
2022-08-27T04:59:39.177Z,18.30
2022-08-27T05:02:11.167Z,18.31
2022-08-27T05:04:41.712Z,18.36
2022-08-27T05:07:10.945Z,18.41
2022-08-27T05:09:39.497Z,18.45
2022-08-27T05:12:08.788Z,18.41
2022-08-27T05:14:38.888Z,18.46
2022-08-27T05:17:07.214Z,18.19
2022-08-27T05:19:35.625Z,18.18
2022-08-27T05:22:04.080Z,18.15
2022-08-27T05:24:33.041Z,18.00
2022-08-27T05:27:01.390Z,18.24
2022-08-27T05:29:30.534Z,18.44
2022-08-27T05:32:00.676Z,18.39
2022-08-27T05:34:29.969Z,18.52
2022-08-27T05:36:59.205Z,18.72
2022-08-27T05:39:27.509Z,18.82
2022-08-27T05:41:58.083Z,18.76
2022-08-27T05:44:42.294Z,18.78
2022-08-27T05:47:12.472Z,18.80
2022-08-27T05:49:41.236Z,19.18
2022-08-27T05:52:10.953Z,19.27
2022-08-27T05:54:40.110Z,19.29
2022-08-27T05:57:08.703Z,19.31
2022-08-27T06:00:02.921Z,19.33
2022-08-27T06:02:38.012Z,19.27
2022-08-27T06:10:47.352Z,19.32
2022-08-27T06:13:17.009Z,19.33
2022-08-27T06:15:47.164Z,19.39
2022-08-27T06:18:17.636Z,19.45
2022-08-27T06:20:46.174Z,19.53
2022-08-27T06:23:15.091Z,19.54
2022-08-27T06:25:43.542Z,19.70
2022-08-27T06:28:12.239Z,19.82
2022-08-27T06:30:40.850Z,19.74
2022-08-27T06:33:09.412Z,19.86
2022-08-27T06:38:11.020Z,20.13
2022-08-27T06:40:42.820Z,20.34
2022-08-27T06:43:11.401Z,20.48
2022-08-27T06:45:40.739Z,20.49
2022-08-27T06:48:09.117Z,20.63
2022-08-27T06:50:40.836Z,20.99
2022-08-27T06:53:10.826Z,20.98
2022-08-27T06:55:43.341Z,21.21
2022-08-27T06:58:12.427Z,21.40
2022-08-27T07:00:41.323Z,21.63
2022-08-27T07:03:10.836Z,21.47
2022-08-27T07:05:59.473Z,21.86
2022-08-27T07:08:29.376Z,21.97
2022-08-27T07:10:58.401Z,21.89
2022-08-27T07:13:27.513Z,21.95
2022-08-27T07:15:56.431Z,21.98
2022-08-27T07:18:29.512Z,22.19
2022-08-27T07:20:58.028Z,22.18
2022-08-27T07:23:26.547Z,22.24
2022-08-27T07:25:56.716Z,22.25
2022-08-27T07:28:25.284Z,22.45
2022-08-27T07:30:54.183Z,22.26
2022-08-27T07:33:22.921Z,22.44
2022-08-27T07:35:52.273Z,22.61
2022-08-27T07:38:29.336Z,22.79
2022-08-27T07:40:59.765Z,22.76
2022-08-27T07:43:45.925Z,22.62
2022-08-27T07:46:14.977Z,22.56
2022-08-27T07:48:43.622Z,22.64
2022-08-27T07:51:17.687Z,22.53
2022-08-27T07:53:46.499Z,22.60
2022-08-27T07:56:16.777Z,22.31
2022-08-27T07:58:45.394Z,21.86
2022-08-27T08:01:14.719Z,22.02
2022-08-27T08:03:43.827Z,22.18
2022-08-27T08:06:15.124Z,22.15
2022-08-27T08:08:45.908Z,22.30
2022-08-27T08:11:18.719Z,22.75
2022-08-27T08:13:49.499Z,22.58
2022-08-27T08:16:19.380Z,22.52
2022-08-27T08:18:49.071Z,22.79
2022-08-27T08:21:19.116Z,22.96
2022-08-27T08:23:49.815Z,22.84
2022-08-27T08:26:26.263Z,23.09
2022-08-27T08:28:56.841Z,23.18
2022-08-27T08:31:29.228Z,23.55
2022-08-27T08:33:59.415Z,23.92
2022-08-27T08:36:29.415Z,23.96
2022-08-27T08:38:59.458Z,23.89
2022-08-27T08:41:39.817Z,24.05
2022-08-27T08:44:15.346Z,23.84
2022-08-27T08:46:48.748Z,23.74
2022-08-27T08:49:27.241Z,23.55
2022-08-27T08:51:57.774Z,24.12
2022-08-27T08:54:30.846Z,24.33
2022-08-27T08:57:03.851Z,24.66
2022-08-27T08:59:36.461Z,24.76
2022-08-27T09:02:09.112Z,24.88
2022-08-27T09:04:40.356Z,24.91
2022-08-27T09:07:11.340Z,24.81
2022-08-27T09:09:49.022Z,25.00
2022-08-27T09:12:25.519Z,25.53
2022-08-27T09:14:59.796Z,25.56
2022-08-27T09:17:30.220Z,25.82
2022-08-27T09:20:00.204Z,26.01
2022-08-27T09:22:39.495Z,26.13
2022-08-27T09:25:12.179Z,26.07
2022-08-27T09:27:45.458Z,26.32
2022-08-27T09:30:22.484Z,26.31
2022-08-27T09:32:56.986Z,26.56
2022-08-27T09:35:27.297Z,26.25
2022-08-27T09:37:57.935Z,26.73
2022-08-27T09:40:32.255Z,26.92
2022-08-27T09:43:10.207Z,26.03
2022-08-27T09:45:38.852Z,26.19
2022-08-27T09:48:09.498Z,26.07
2022-08-27T09:50:43.740Z,26.40
2022-08-27T09:53:23.375Z,26.44
2022-08-27T09:56:01.991Z,27.14
2022-08-27T09:58:49.161Z,28.19
2022-08-27T10:01:21.723Z,29.32
2022-08-27T10:03:52.364Z,30.15
2022-08-27T10:06:44.306Z,30.76
2022-08-27T10:09:47.921Z,30.45
2022-08-27T10:12:50.127Z,29.11
2022-08-27T10:15:24.314Z,27.99
2022-08-27T10:18:08.275Z,28.41
2022-08-27T10:20:44.405Z,27.91
2022-08-27T10:23:24.576Z,27.90
2022-08-27T10:25:58.789Z,27.85
2022-08-27T10:28:37.375Z,27.96
2022-08-27T10:31:30.132Z,26.99
2022-08-27T10:36:45.032Z,27.70
2022-08-27T10:39:22.682Z,28.11
2022-08-27T10:41:56.073Z,28.60
2022-08-27T10:44:42.888Z,28.87
2022-08-27T10:47:21.689Z,27.96
2022-08-27T10:50:05.832Z,28.05
2022-08-27T10:52:44.159Z,28.00
2022-08-27T10:55:16.521Z,27.82
2022-08-27T10:58:02.622Z,28.44
2022-08-27T11:00:42.085Z,28.31
2022-08-27T11:03:14.161Z,27.62
2022-08-27T11:05:49.088Z,28.50
2022-08-27T11:08:23.574Z,28.80
2022-08-27T11:10:57.284Z,29.12
2022-08-27T11:13:33.172Z,29.54
2022-08-27T11:16:04.665Z,29.67
2022-08-27T11:18:41.040Z,28.71
2022-08-27T11:21:16.458Z,28.54
2022-08-27T11:23:56.506Z,27.97
2022-08-27T11:26:26.761Z,28.31
2022-08-27T11:29:00.491Z,28.72
2022-08-27T11:31:38.487Z,28.00
2022-08-27T11:34:11.631Z,28.41
2022-08-27T11:36:56.347Z,28.89
2022-08-27T11:40:04.111Z,29.46
2022-08-27T11:42:37.567Z,29.55
2022-08-27T11:45:08.802Z,29.54
2022-08-27T11:47:38.972Z,29.58
2022-08-27T11:50:09.801Z,28.29
2022-08-27T11:52:41.986Z,29.84
2022-08-27T11:55:16.506Z,28.99
2022-08-27T11:57:47.084Z,29.34
2022-08-27T12:00:20.512Z,28.90
2022-08-27T12:02:59.444Z,29.45
2022-08-27T12:05:45.849Z,27.94
2022-08-27T12:08:28.587Z,29.30
2022-08-27T12:11:08.517Z,28.95
2022-08-27T12:13:43.464Z,29.07
2022-08-27T12:16:27.835Z,29.07
2022-08-27T12:19:14.136Z,29.53
2022-08-27T12:21:57.510Z,29.80
2022-08-27T12:24:55.657Z,30.11
2022-08-27T12:27:38.379Z,30.00
2022-08-27T12:30:22.494Z,28.63
2022-08-27T12:32:52.636Z,29.19
2022-08-27T12:35:24.403Z,28.94
2022-08-27T12:37:56.861Z,29.25
2022-08-27T12:40:28.165Z,28.32
2022-08-27T12:43:08.789Z,28.59
2022-08-27T12:46:06.338Z,28.02
2022-08-27T12:48:40.730Z,28.72
2022-08-27T12:51:14.145Z,29.38
2022-08-27T12:53:46.105Z,28.87
2022-08-27T12:56:50.154Z,29.62
2022-08-27T13:00:03.561Z,29.34
2022-08-27T13:03:00.687Z,29.15
2022-08-27T13:05:39.262Z,28.99
2022-08-27T13:08:20.119Z,29.69
2022-08-27T13:10:49.175Z,29.52
2022-08-27T13:13:20.613Z,29.10
2022-08-27T13:15:52.876Z,29.24
2022-08-27T13:18:22.202Z,29.44
2022-08-27T13:20:53.716Z,29.85
2022-08-27T13:23:24.318Z,29.61
2022-08-27T13:26:04.590Z,29.90
2022-08-27T13:28:44.362Z,29.72
2022-08-27T13:31:14.393Z,29.93
2022-08-27T13:33:44.122Z,29.73
2022-08-27T13:36:12.723Z,29.84
2022-08-27T13:38:47.879Z,29.63
2022-08-27T13:41:26.238Z,30.03
2022-08-27T13:43:59.565Z,29.91
2022-08-27T13:46:31.609Z,29.42
2022-08-27T13:49:01.146Z,29.03
2022-08-27T13:51:32.028Z,28.77
2022-08-27T13:54:17.340Z,28.76
2022-08-27T13:57:08.178Z,29.28
2022-08-27T13:59:42.827Z,28.84
2022-08-27T14:02:28.257Z,28.50
2022-08-27T14:05:13.472Z,28.78
2022-08-27T14:07:47.669Z,28.84
2022-08-27T14:10:34.544Z,29.47
2022-08-27T14:13:06.566Z,29.38
2022-08-27T14:15:38.580Z,29.64
2022-08-27T14:18:32.129Z,29.66
2022-08-27T14:21:06.360Z,29.86
2022-08-27T14:23:35.439Z,29.82
2022-08-27T14:26:08.329Z,29.79
2022-08-27T14:28:37.852Z,29.96
2022-08-27T14:31:07.169Z,30.18
2022-08-27T14:33:37.244Z,29.75
2022-08-27T14:36:06.469Z,30.18
2022-08-27T14:38:36.078Z,30.27
2022-08-27T14:41:06.707Z,30.52
2022-08-27T14:43:35.888Z,30.52
2022-08-27T14:46:05.357Z,29.72
2022-08-27T14:48:51.503Z,29.76
2022-08-27T14:51:24.991Z,28.84
2022-08-27T14:53:54.173Z,28.87
2022-08-27T14:56:23.414Z,28.90
2022-08-27T14:58:53.765Z,28.92
2022-08-27T15:01:24.747Z,28.64
2022-08-27T15:03:56.023Z,28.32
2022-08-27T15:06:26.468Z,27.85
2022-08-27T15:08:56.596Z,27.46
2022-08-27T15:11:28.636Z,27.01
2022-08-27T15:13:59.280Z,27.15
2022-08-27T15:16:31.401Z,27.25
2022-08-27T15:19:01.840Z,27.09
2022-08-27T15:21:31.904Z,27.03
2022-08-27T15:24:02.426Z,27.01
2022-08-27T15:26:31.452Z,27.01
2022-08-27T15:29:05.612Z,27.19
2022-08-27T15:31:35.288Z,27.42
2022-08-27T15:34:05.485Z,27.19
2022-08-27T15:36:33.863Z,27.31
2022-08-27T15:39:02.463Z,27.53
2022-08-27T15:41:34.043Z,27.82
2022-08-27T15:44:02.917Z,28.26
2022-08-27T15:46:31.927Z,28.46
2022-08-27T15:49:00.715Z,28.25
2022-08-27T15:51:32.786Z,28.65
2022-08-27T15:54:01.848Z,28.74
2022-08-27T15:56:34.446Z,28.95
2022-08-27T15:59:03.506Z,28.60
2022-08-27T16:01:33.784Z,28.59
2022-08-27T16:04:03.711Z,27.90
2022-08-27T16:06:37.535Z,28.27
2022-08-27T16:09:06.417Z,28.17
2022-08-27T16:11:35.232Z,27.80
2022-08-27T16:14:04.124Z,27.42
2022-08-27T16:16:33.724Z,27.49
2022-08-27T16:19:03.624Z,27.50
2022-08-27T16:21:34.969Z,27.75
2022-08-27T16:24:06.507Z,27.81
2022-08-27T16:26:35.244Z,28.05
2022-08-27T16:29:03.880Z,27.99
2022-08-27T16:31:32.887Z,27.82
2022-08-27T16:34:01.940Z,27.56
2022-08-27T16:36:30.816Z,27.53
2022-08-27T16:38:59.341Z,27.20
2022-08-27T16:41:29.504Z,26.90
2022-08-27T16:43:59.149Z,26.89
2022-08-27T16:46:27.822Z,26.68
2022-08-27T16:49:15.092Z,26.73
2022-08-27T16:51:43.824Z,26.99
2022-08-27T16:54:13.489Z,26.75
2022-08-27T16:56:43.675Z,26.84
2022-08-27T16:59:16.107Z,26.83
2022-08-27T17:01:45.027Z,26.73
2022-08-27T17:04:21.577Z,26.54
2022-08-27T17:06:58.292Z,26.23
2022-08-27T17:09:27.296Z,25.93
2022-08-27T17:11:59.141Z,25.88
2022-08-27T17:14:27.872Z,25.66
2022-08-27T17:16:56.371Z,25.32
2022-08-27T17:19:26.298Z,24.95
2022-08-27T17:21:55.301Z,24.59
2022-08-27T17:24:23.985Z,24.46
2022-08-27T17:26:52.553Z,24.39
2022-08-27T17:29:23.056Z,24.22
2022-08-27T17:31:51.907Z,24.02
2022-08-27T17:34:23.603Z,24.01
2022-08-27T17:36:52.315Z,23.97
2022-08-27T17:39:21.518Z,23.91
2022-08-27T17:41:52.130Z,23.79
2022-08-27T17:44:33.409Z,23.82
2022-08-27T17:47:03.762Z,23.69
2022-08-27T17:49:32.592Z,23.46
2022-08-27T17:52:03.614Z,23.32
2022-08-27T17:54:34.996Z,23.14
2022-08-27T17:57:05.356Z,22.95
2022-08-27T17:59:35.544Z,23.10
2022-08-27T18:02:05.113Z,23.08
2022-08-27T18:04:35.086Z,22.93
2022-08-27T18:07:10.819Z,22.99
2022-08-27T18:09:39.876Z,23.00
2022-08-27T18:12:08.972Z,22.89
2022-08-27T18:14:38.876Z,22.80
2022-08-27T18:17:07.752Z,22.69
2022-08-27T18:19:37.822Z,22.57
2022-08-27T18:22:06.979Z,22.29
2022-08-27T18:24:35.437Z,22.16
2022-08-27T18:27:04.177Z,22.21
2022-08-27T18:29:32.894Z,22.26
2022-08-27T18:32:02.936Z,22.22
2022-08-27T18:34:32.625Z,22.17
2022-08-27T18:37:01.398Z,22.18
2022-08-27T18:39:31.161Z,22.06
2022-08-27T18:41:59.859Z,21.93
2022-08-27T18:44:28.673Z,21.56
2022-08-27T18:46:57.395Z,21.92
2022-08-27T18:49:27.477Z,21.79
2022-08-27T18:51:56.595Z,21.73
2022-08-27T18:54:27.370Z,21.62
2022-08-27T18:56:56.099Z,21.56
2022-08-27T18:59:27.402Z,21.51
2022-08-27T19:01:57.200Z,21.46
2022-08-27T19:04:28.113Z,21.43
2022-08-27T19:06:57.466Z,21.33
2022-08-27T19:09:26.429Z,21.31
2022-08-27T19:11:55.097Z,21.45
2022-08-27T19:14:23.678Z,21.34
2022-08-27T19:16:56.110Z,21.26
2022-08-27T19:19:28.218Z,21.31
2022-08-27T19:22:07.092Z,21.25
2022-08-27T19:24:36.862Z,21.14
2022-08-27T19:27:09.400Z,21.03
2022-08-27T19:29:37.916Z,20.97
2022-08-27T19:32:06.659Z,20.87
2022-08-27T19:34:36.968Z,20.98
2022-08-27T19:37:07.011Z,20.98
2022-08-27T19:39:37.804Z,20.94
2022-08-27T19:42:06.827Z,20.87
2022-08-27T19:44:35.911Z,20.72
2022-08-27T19:47:05.431Z,20.63
2022-08-27T19:49:40.375Z,20.57
2022-08-27T19:52:10.962Z,20.60
2022-08-27T19:54:56.862Z,20.63
2022-08-27T19:57:26.954Z,20.76
2022-08-27T19:59:56.011Z,20.70
2022-08-27T20:02:28.552Z,20.69
2022-08-27T20:05:21.103Z,20.72
2022-08-27T20:07:51.137Z,20.77
2022-08-27T20:10:21.457Z,20.72
2022-08-27T20:12:52.071Z,20.55
2022-08-27T20:15:23.504Z,20.57
2022-08-27T20:17:54.194Z,20.70
2022-08-27T20:20:25.938Z,20.74
2022-08-27T20:22:55.273Z,20.60
2022-08-27T20:25:25.297Z,20.61
2022-08-27T20:30:40.726Z,20.61
2022-08-27T20:33:14.911Z,20.56
2022-08-27T20:35:45.135Z,20.50
2022-08-27T20:38:13.787Z,20.46
2022-08-27T20:40:43.056Z,20.43
2022-08-27T20:43:11.593Z,20.41
2022-08-27T20:45:40.839Z,20.47
2022-08-27T20:48:10.332Z,20.44
2022-08-27T20:50:39.186Z,20.15
2022-08-27T20:53:09.321Z,20.38
2022-08-27T20:55:38.082Z,20.29
2022-08-27T20:58:23.966Z,20.35
2022-08-27T21:00:53.380Z,20.26
2022-08-27T21:03:22.269Z,20.27
2022-08-27T21:05:51.176Z,20.15
2022-08-27T21:08:26.226Z,19.89
2022-08-27T21:10:56.944Z,20.11
2022-08-27T21:13:27.438Z,20.03
2022-08-27T21:15:56.806Z,20.13
2022-08-27T21:18:29.674Z,19.80
2022-08-27T21:20:59.499Z,19.92
2022-08-27T21:23:30.642Z,19.29
2022-08-27T21:26:02.724Z,19.97
2022-08-27T21:28:31.900Z,19.97
2022-08-27T21:31:00.663Z,19.75
2022-08-27T21:33:29.335Z,19.70
2022-08-27T21:35:58.229Z,19.63
2022-08-27T21:38:30.610Z,19.76
2022-08-27T21:40:59.851Z,19.73
2022-08-27T21:43:28.601Z,19.76
2022-08-27T21:45:59.299Z,19.69
2022-08-27T21:48:28.442Z,19.62
2022-08-27T21:50:57.061Z,19.65
2022-08-27T21:53:25.533Z,19.66
2022-08-27T21:55:55.803Z,19.48
2022-08-27T21:58:26.531Z,19.55
2022-08-27T22:00:57.024Z,19.65
2022-08-27T22:03:27.955Z,19.56
2022-08-27T22:05:56.829Z,19.42
2022-08-27T22:08:25.535Z,19.46
2022-08-27T22:10:58.038Z,19.54
2022-08-27T22:13:27.150Z,19.45
2022-08-27T22:15:55.996Z,19.41
2022-08-27T22:18:25.010Z,19.40
2022-08-27T22:20:54.542Z,19.25
2022-08-27T22:23:23.436Z,19.31
2022-08-27T22:25:51.990Z,19.18
2022-08-27T22:28:21.811Z,19.14
2022-08-27T22:30:50.810Z,19.19
2022-08-27T22:33:19.383Z,19.11
2022-08-27T22:35:48.973Z,19.03
2022-08-27T22:38:17.532Z,18.99
2022-08-27T22:40:46.086Z,18.97
2022-08-27T22:43:15.047Z,18.94
2022-08-27T22:45:44.940Z,18.12
2022-08-27T22:48:13.975Z,18.96
2022-08-27T22:50:42.848Z,18.70
2022-08-27T22:53:12.155Z,18.90
2022-08-27T22:55:40.830Z,19.03
2022-08-27T22:58:09.397Z,18.89
2022-08-27T23:00:39.202Z,18.76
2022-08-27T23:03:11.668Z,18.79
2022-08-27T23:05:42.135Z,18.71
2022-08-27T23:08:13.296Z,18.74
2022-08-27T23:10:42.902Z,18.78
2022-08-27T23:13:12.187Z,18.69
2022-08-27T23:15:41.823Z,18.77
2022-08-27T23:18:12.157Z,18.70
2022-08-27T23:20:41.009Z,18.67
2022-08-27T23:23:10.334Z,18.77
2022-08-27T23:25:56.931Z,18.73
2022-08-27T23:28:25.533Z,18.73
2022-08-27T23:30:54.645Z,18.77
2022-08-27T23:33:25.061Z,18.77
2022-08-27T23:35:53.709Z,18.60
2022-08-27T23:38:23.567Z,18.86
2022-08-27T23:40:52.510Z,18.82
2022-08-27T23:43:21.984Z,18.94
2022-08-27T23:45:52.136Z,19.02
2022-08-27T23:48:21.870Z,19.04
2022-08-27T23:50:52.102Z,19.03
2022-08-27T23:53:20.884Z,18.86
2022-08-27T23:55:49.432Z,18.84
2022-08-27T23:58:18.050Z,18.88
